createdAt,value
2019-04-26T00:01:09.970Z,17.10
2019-04-26T00:03:44.734Z,17.10
2019-04-26T00:06:16.628Z,17.10
2019-04-26T00:08:52.232Z,17.20
2019-04-26T00:11:48.391Z,17.20
2019-04-26T00:14:53.703Z,17.00
2019-04-26T00:17:46.016Z,17.10
2019-04-26T00:20:17.133Z,17.10
2019-04-26T00:22:47.615Z,17.10
2019-04-26T00:25:18.652Z,17.10
2019-04-26T00:27:49.293Z,17.10
2019-04-26T00:30:19.712Z,17.10
2019-04-26T00:32:50.292Z,17.00
2019-04-26T00:35:20.724Z,17.00
2019-04-26T00:37:51.354Z,17.00
2019-04-26T00:40:22.447Z,16.80
2019-04-26T00:42:54.602Z,16.70
2019-04-26T00:45:29.089Z,16.70
2019-04-26T00:48:01.449Z,16.60
2019-04-26T00:50:33.654Z,16.50
2019-04-26T00:53:04.873Z,16.40
2019-04-26T00:55:45.319Z,16.60
2019-04-26T00:58:16.495Z,16.60
2019-04-26T01:00:47.775Z,16.60
2019-04-26T01:03:18.670Z,16.60
2019-04-26T01:05:59.554Z,16.60
2019-04-26T01:08:23.407Z,16.50
2019-04-26T01:10:54.271Z,16.50
2019-04-26T01:13:24.700Z,16.50
2019-04-26T01:15:55.044Z,16.50
2019-04-26T01:18:26.405Z,16.50
2019-04-26T01:21:01.241Z,16.40
2019-04-26T01:23:36.251Z,16.40
2019-04-26T01:26:32.305Z,16.30
2019-04-26T01:29:08.027Z,16.20
2019-04-26T01:31:48.311Z,16.20
2019-04-26T01:34:19.269Z,16.20
2019-04-26T01:36:53.550Z,16.00
2019-04-26T01:39:24.394Z,16.00
2019-04-26T01:42:04.358Z,16.00
2019-04-26T01:45:03.962Z,15.90
2019-04-26T01:47:34.891Z,16.00
2019-04-26T01:50:06.031Z,16.00
2019-04-26T01:52:36.804Z,16.00
2019-04-26T01:55:08.317Z,15.90
2019-04-26T01:57:40.987Z,15.80
2019-04-26T02:00:33.947Z,15.70
2019-04-26T02:03:13.437Z,15.60
2019-04-26T02:05:43.898Z,15.50
2019-04-26T02:08:14.927Z,15.50
2019-04-26T02:10:45.371Z,15.50
2019-04-26T02:13:15.710Z,15.50
2019-04-26T02:15:46.075Z,15.50
2019-04-26T02:18:16.541Z,15.40
2019-04-26T02:21:20.116Z,15.40
2019-04-26T02:23:59.775Z,15.30
2019-04-26T02:26:40.198Z,15.30
2019-04-26T02:29:18.560Z,15.30
2019-04-26T02:31:57.047Z,15.30
2019-04-26T02:34:31.219Z,15.30
2019-04-26T02:37:05.939Z,15.10
2019-04-26T02:39:40.934Z,15.10
2019-04-26T02:42:41.296Z,15.10
2019-04-26T02:45:55.255Z,14.90
2019-04-26T02:48:49.858Z,14.80
2019-04-26T02:51:29.131Z,14.80
2019-04-26T02:54:29.065Z,14.70
2019-04-26T02:57:01.230Z,14.60
2019-04-26T02:59:46.659Z,14.60
2019-04-26T03:02:25.126Z,14.60
2019-04-26T03:05:03.246Z,14.50
2019-04-26T03:07:57.999Z,14.60
2019-04-26T03:10:40.255Z,14.60
2019-04-26T03:13:28.419Z,14.70
2019-04-26T03:16:18.440Z,14.70
2019-04-26T03:19:04.518Z,14.60
2019-04-26T03:22:03.513Z,14.50
2019-04-26T03:24:45.305Z,14.50
2019-04-26T03:28:07.184Z,14.50
2019-04-26T03:30:54.996Z,14.60
2019-04-26T03:34:14.200Z,14.60
2019-04-26T03:37:41.987Z,14.30
2019-04-26T03:40:38.951Z,14.20
2019-04-26T03:43:35.119Z,14.40
2019-04-26T03:46:39.030Z,14.50
2019-04-26T03:49:44.234Z,14.50
2019-04-26T03:52:57.634Z,14.50
2019-04-26T03:56:25.571Z,14.60
2019-04-26T03:59:17.282Z,14.40
2019-04-26T04:02:01.951Z,14.50
2019-04-26T04:04:46.450Z,14.50
2019-04-26T04:07:36.113Z,14.40
2019-04-26T04:10:12.400Z,14.40
2019-04-26T04:13:05.210Z,14.40
2019-04-26T04:15:46.704Z,14.50
2019-04-26T04:18:24.280Z,14.40
2019-04-26T04:21:48.331Z,14.50
2019-04-26T04:24:39.069Z,14.50
2019-04-26T04:27:49.265Z,14.50
2019-04-26T04:31:13.158Z,14.60
2019-04-26T04:34:42.089Z,14.60
2019-04-26T04:37:17.234Z,14.70
2019-04-26T04:40:11.810Z,14.70
2019-04-26T04:43:21.962Z,14.30
2019-04-26T04:47:24.178Z,14.10
2019-04-26T04:50:40.955Z,14.40
2019-04-26T04:54:18.363Z,14.60
2019-04-26T04:57:30.800Z,14.60
2019-04-26T05:00:38.852Z,14.70
2019-04-26T05:03:45.014Z,14.70
2019-04-26T05:06:53.238Z,14.70
2019-04-26T05:09:45.316Z,14.70
2019-04-26T05:12:37.135Z,14.60
2019-04-26T05:16:00.623Z,14.60
2019-04-26T05:19:29.007Z,14.10
2019-04-26T05:22:40.409Z,14.30
2019-04-26T05:26:30.996Z,14.40
2019-04-26T05:29:32.456Z,14.40
2019-04-26T05:32:41.098Z,14.60
2019-04-26T05:35:45.097Z,14.80
2019-04-26T05:38:59.424Z,15.00
2019-04-26T05:42:54.271Z,15.00
2019-04-26T05:46:16.949Z,15.00
2019-04-26T05:50:03.520Z,15.20
2019-04-26T05:53:27.854Z,15.40
2019-04-26T05:56:42.401Z,15.40
2019-04-26T05:59:38.666Z,15.40
2019-04-26T06:03:01.311Z,15.10
2019-04-26T06:06:24.698Z,15.00
2019-04-26T06:10:05.402Z,15.20
2019-04-26T06:13:08.033Z,15.20
2019-04-26T06:16:07.033Z,15.20
2019-04-26T06:19:03.296Z,15.10
2019-04-26T06:21:54.005Z,15.10
2019-04-26T06:25:23.759Z,14.80
2019-04-26T06:28:37.918Z,15.10
2019-04-26T06:31:26.510Z,15.10
2019-04-26T06:34:13.511Z,15.10
2019-04-26T06:37:27.043Z,14.80
2019-04-26T06:40:41.947Z,14.70
2019-04-26T06:43:29.069Z,14.70
2019-04-26T06:47:07.420Z,15.10
2019-04-26T06:50:07.956Z,15.40
2019-04-26T06:52:52.392Z,15.40
2019-04-26T06:55:40.532Z,15.60
2019-04-26T06:58:45.314Z,15.70
2019-04-26T07:01:39.947Z,15.80
2019-04-26T07:04:45.747Z,15.80
2019-04-26T07:08:06.833Z,15.20
2019-04-26T07:11:38.139Z,15.10
2019-04-26T07:14:59.282Z,15.40
2019-04-26T07:17:52.721Z,15.30
2019-04-26T07:20:42.413Z,15.30
2019-04-26T07:23:54.023Z,15.40
2019-04-26T07:27:16.670Z,15.70
2019-04-26T07:30:43.231Z,15.60
2019-04-26T07:34:03.777Z,15.40
2019-04-26T07:37:29.917Z,14.80
2019-04-26T07:41:01.570Z,15.10
2019-04-26T07:44:41.103Z,15.30
2019-04-26T07:48:34.787Z,15.40
2019-04-26T07:52:06.411Z,15.40
2019-04-26T07:55:40.504Z,15.00
2019-04-26T07:59:07.094Z,15.40
2019-04-26T08:02:25.860Z,15.20
2019-04-26T08:05:11.467Z,15.10
2019-04-26T08:07:50.436Z,15.00
2019-04-26T08:10:24.591Z,15.30
2019-04-26T08:13:07.966Z,15.40
2019-04-26T08:16:06.749Z,15.60
2019-04-26T08:18:49.002Z,15.50
2019-04-26T08:21:32.067Z,15.00
2019-04-26T08:24:21.720Z,15.00
2019-04-26T08:27:23.323Z,14.90
2019-04-26T08:30:03.391Z,15.00
2019-04-26T08:32:42.504Z,15.30
2019-04-26T08:35:26.720Z,15.40
2019-04-26T08:38:16.107Z,15.40
2019-04-26T08:40:43.251Z,15.50
2019-04-26T08:43:37.522Z,15.60
2019-04-26T08:46:42.852Z,15.50
2019-04-26T08:49:29.606Z,15.40
2019-04-26T08:52:13.914Z,15.40
2019-04-26T08:54:44.941Z,15.40
2019-04-26T08:57:17.347Z,15.30
2019-04-26T08:59:54.182Z,15.30
2019-04-26T09:02:54.552Z,15.30
2019-04-26T09:05:49.934Z,15.20
2019-04-26T09:08:23.747Z,15.20
2019-04-26T09:10:57.459Z,15.20
2019-04-26T09:13:33.229Z,15.30
2019-04-26T09:16:15.311Z,15.30
2019-04-26T09:18:52.522Z,15.20
2019-04-26T09:21:23.125Z,15.40
2019-04-26T09:24:12.421Z,15.40
2019-04-26T09:26:48.611Z,15.60
2019-04-26T09:29:26.328Z,15.70
2019-04-26T09:32:08.131Z,15.70
2019-04-26T09:34:42.654Z,15.30
2019-04-26T09:37:14.086Z,15.70
2019-04-26T09:39:51.069Z,15.80
2019-04-26T09:42:46.671Z,16.00
2019-04-26T09:45:35.144Z,16.10
2019-04-26T09:48:19.905Z,16.20
2019-04-26T09:50:51.991Z,16.30
2019-04-26T09:53:22.687Z,16.00
2019-04-26T09:55:53.406Z,16.10
2019-04-26T09:58:42.839Z,16.40
2019-04-26T10:01:14.838Z,17.00
2019-04-26T10:03:45.364Z,17.00
2019-04-26T10:06:15.751Z,17.50
2019-04-26T10:08:47.076Z,17.80
2019-04-26T10:11:20.809Z,18.00
2019-04-26T10:13:56.674Z,17.50
2019-04-26T10:16:33.601Z,17.80
2019-04-26T10:19:12.906Z,18.00
2019-04-26T10:21:43.333Z,18.20
2019-04-26T10:24:13.917Z,18.10
2019-04-26T10:26:45.034Z,17.90
2019-04-26T10:29:15.707Z,18.10
2019-04-26T10:31:47.580Z,18.20
2019-04-26T10:34:18.817Z,18.40
2019-04-26T10:36:49.154Z,18.60
2019-04-26T10:39:20.378Z,18.30
2019-04-26T10:41:51.169Z,18.30
2019-04-26T10:44:22.071Z,18.40
2019-04-26T10:46:55.637Z,18.50
2019-04-26T10:49:43.799Z,18.70
2019-04-26T10:52:26.023Z,18.90
2019-04-26T10:55:08.373Z,18.60
2019-04-26T10:57:40.855Z,18.60
2019-04-26T11:00:19.114Z,18.80
2019-04-26T11:02:49.417Z,18.10
2019-04-26T11:05:19.871Z,18.60
2019-04-26T11:07:53.321Z,18.80
2019-04-26T11:10:24.512Z,18.60
2019-04-26T11:12:55.458Z,18.30
2019-04-26T11:15:29.043Z,18.30
2019-04-26T11:17:59.583Z,18.10
2019-04-26T11:20:29.864Z,17.60
2019-04-26T11:23:00.311Z,17.40
2019-04-26T11:25:31.025Z,17.40
2019-04-26T11:28:01.440Z,17.30
2019-04-26T11:30:31.817Z,17.30
2019-04-26T11:33:02.169Z,17.10
2019-04-26T11:35:34.453Z,17.00
2019-04-26T11:38:04.923Z,17.10
2019-04-26T11:40:35.260Z,17.00
2019-04-26T11:43:05.663Z,17.10
2019-04-26T11:45:36.080Z,17.00
2019-04-26T11:48:06.691Z,17.10
2019-04-26T11:50:37.323Z,16.90
2019-04-26T11:53:10.079Z,16.50
2019-04-26T11:55:40.135Z,16.30
2019-04-26T11:58:10.503Z,16.70
2019-04-26T12:00:45.182Z,16.60
2019-04-26T12:03:15.873Z,16.70
2019-04-26T12:06:08.550Z,16.90
2019-04-26T12:08:48.716Z,17.00
2019-04-26T12:11:25.862Z,17.10
2019-04-26T12:13:51.472Z,17.10
2019-04-26T12:16:21.871Z,17.30
2019-04-26T12:18:52.230Z,17.50
2019-04-26T12:21:23.973Z,17.50
2019-04-26T12:23:55.532Z,17.70
2019-04-26T12:26:26.425Z,17.60
2019-04-26T12:28:56.788Z,17.60
2019-04-26T12:31:27.463Z,17.70
2019-04-26T12:33:58.142Z,17.70
2019-04-26T12:36:28.495Z,17.80
2019-04-26T12:39:02.260Z,17.80
2019-04-26T12:41:40.329Z,17.60
2019-04-26T12:44:03.452Z,17.80
2019-04-26T12:46:50.746Z,17.80
2019-04-26T12:49:24.302Z,18.10
2019-04-26T12:51:53.544Z,18.40
2019-04-26T12:54:24.305Z,17.90
2019-04-26T12:56:54.762Z,18.20
2019-04-26T12:59:26.506Z,18.40
2019-04-26T13:02:05.503Z,17.90
2019-04-26T13:04:35.937Z,18.50
2019-04-26T13:07:22.785Z,18.50
2019-04-26T13:09:49.135Z,18.10
2019-04-26T13:12:30.735Z,18.20
2019-04-26T13:16:04.937Z,18.60
2019-04-26T13:18:35.327Z,18.20
2019-04-26T13:21:05.949Z,18.20
2019-04-26T13:23:36.805Z,18.30
2019-04-26T13:26:07.504Z,18.20
2019-04-26T13:28:37.964Z,18.30
2019-04-26T13:31:08.469Z,17.90
2019-04-26T13:33:39.372Z,18.30
2019-04-26T13:36:10.052Z,18.50
2019-04-26T13:38:43.596Z,18.70
2019-04-26T13:41:12.918Z,18.30
2019-04-26T13:43:44.764Z,18.50
2019-04-26T13:46:26.047Z,18.30
2019-04-26T13:49:18.079Z,18.40
2019-04-26T13:51:48.412Z,18.30
2019-04-26T13:54:20.980Z,18.00
2019-04-26T13:56:51.015Z,17.90
2019-04-26T13:59:21.652Z,17.80
2019-04-26T14:01:53.140Z,17.90
2019-04-26T14:04:23.529Z,17.60
2019-04-26T14:07:41.973Z,17.40
2019-04-26T14:10:12.329Z,17.50
2019-04-26T14:12:46.166Z,17.40
2019-04-26T14:15:14.797Z,17.60
2019-04-26T14:17:45.158Z,17.90
2019-04-26T14:20:19.322Z,17.80
2019-04-26T14:23:04.713Z,18.00
2019-04-26T14:26:01.148Z,17.80
2019-04-26T14:28:32.273Z,17.80
2019-04-26T14:31:02.701Z,17.80
2019-04-26T14:33:33.296Z,17.50
2019-04-26T14:36:16.666Z,17.60
2019-04-26T14:38:40.053Z,17.70
2019-04-26T14:41:08.064Z,17.80
2019-04-26T14:43:41.078Z,17.90
2019-04-26T14:46:14.388Z,17.80
2019-04-26T14:48:44.766Z,17.60
2019-04-26T14:51:16.715Z,17.70
2019-04-26T14:53:46.873Z,17.60
2019-04-26T14:56:18.320Z,17.70
2019-04-26T14:58:48.798Z,17.70
2019-04-26T15:01:35.174Z,17.80
2019-04-26T15:04:23.231Z,17.80
2019-04-26T15:06:58.033Z,17.90
2019-04-26T15:09:33.057Z,17.70
2019-04-26T15:12:01.261Z,17.60
2019-04-26T15:14:30.393Z,17.60
2019-04-26T15:17:02.541Z,17.30
2019-04-26T15:19:35.069Z,17.50
2019-04-26T15:22:10.408Z,17.40
2019-04-26T15:24:38.579Z,17.40
2019-04-26T15:27:09.114Z,17.50
2019-04-26T15:29:39.468Z,17.40
2019-04-26T15:32:09.794Z,17.40
2019-04-26T15:34:40.150Z,17.00
2019-04-26T15:37:10.494Z,17.10
2019-04-26T15:39:50.304Z,17.30
2019-04-26T15:42:34.284Z,17.60
2019-04-26T15:45:10.585Z,17.70
2019-04-26T15:48:02.898Z,17.70
2019-04-26T15:50:40.991Z,17.70
2019-04-26T15:53:14.517Z,17.80
2019-04-26T15:55:43.683Z,18.00
2019-04-26T15:58:13.979Z,18.20
2019-04-26T16:00:44.745Z,17.90
2019-04-26T16:03:15.076Z,18.00
2019-04-26T16:05:45.579Z,17.70
2019-04-26T16:08:16.555Z,18.00
2019-04-26T16:10:46.974Z,17.90
2019-04-26T16:13:21.025Z,17.90
2019-04-26T16:15:50.393Z,18.20
2019-04-26T16:18:22.378Z,18.40
2019-04-26T16:20:53.313Z,18.40
2019-04-26T16:23:24.493Z,18.30
2019-04-26T16:25:54.900Z,18.40
2019-04-26T16:28:38.368Z,18.60
2019-04-26T16:31:30.068Z,18.60
2019-04-26T16:34:06.111Z,18.00
2019-04-26T16:36:36.661Z,18.30
2019-04-26T16:39:10.195Z,17.90
2019-04-26T16:41:42.061Z,18.00
2019-04-26T16:44:13.539Z,18.10
2019-04-26T16:46:44.059Z,17.90
2019-04-26T16:49:15.028Z,17.90
2019-04-26T16:51:45.392Z,18.00
2019-04-26T16:54:20.965Z,18.20
2019-04-26T16:56:48.244Z,18.20
2019-04-26T16:59:24.048Z,17.90
2019-04-26T17:01:53.216Z,18.30
2019-04-26T17:04:28.372Z,18.40
2019-04-26T17:07:01.718Z,18.30
2019-04-26T17:09:29.651Z,18.20
2019-04-26T17:12:00.015Z,18.10
2019-04-26T17:14:33.959Z,18.30
2019-04-26T17:17:03.318Z,18.50
2019-04-26T17:19:37.368Z,18.60
2019-04-26T17:22:16.757Z,18.40
2019-04-26T17:24:53.372Z,18.50
2019-04-26T17:27:24.043Z,18.50
2019-04-26T17:29:54.416Z,18.50
2019-04-26T17:32:25.275Z,18.20
2019-04-26T17:34:59.497Z,17.70
2019-04-26T17:37:28.446Z,18.10
2019-04-26T17:39:58.875Z,17.40
2019-04-26T17:42:35.873Z,17.40
2019-04-26T17:45:05.929Z,17.60
2019-04-26T17:47:36.693Z,17.80
2019-04-26T17:50:07.706Z,17.40
2019-04-26T17:52:38.135Z,17.60
2019-04-26T17:55:11.941Z,17.60
2019-04-26T17:57:48.259Z,17.60
2019-04-26T18:00:20.805Z,17.60
2019-04-26T18:02:50.735Z,17.20
2019-04-26T18:05:23.188Z,17.40
2019-04-26T18:07:58.445Z,17.50
2019-04-26T18:10:25.847Z,17.50
2019-04-26T18:12:56.290Z,17.60
2019-04-26T18:15:26.645Z,17.60
2019-04-26T18:18:17.541Z,17.50
2019-04-26T18:21:05.604Z,17.50
2019-04-26T18:23:36.077Z,17.40
2019-04-26T18:26:06.644Z,17.40
2019-04-26T18:28:37.639Z,17.30
2019-04-26T18:31:09.829Z,17.10
2019-04-26T18:33:40.216Z,17.10
2019-04-26T18:36:10.658Z,17.10
2019-04-26T18:38:43.093Z,17.10
2019-04-26T18:41:13.669Z,17.10
2019-04-26T18:43:44.070Z,17.10
2019-04-26T18:46:19.495Z,17.10
2019-04-26T18:48:50.137Z,17.00
2019-04-26T18:51:20.761Z,17.00
2019-04-26T18:54:14.552Z,16.90
2019-04-26T18:56:49.865Z,16.50
2019-04-26T18:59:20.509Z,16.40
2019-04-26T19:01:53.388Z,16.40
2019-04-26T19:04:24.022Z,16.30
2019-04-26T19:06:54.468Z,16.20
2019-04-26T19:09:27.439Z,16.00
2019-04-26T19:11:57.942Z,15.90
2019-04-26T19:14:49.183Z,15.90
2019-04-26T19:17:25.950Z,16.00
2019-04-26T19:20:24.865Z,16.10
2019-04-26T19:23:03.075Z,16.10
2019-04-26T19:25:38.629Z,16.20
2019-04-26T19:28:08.076Z,16.20
2019-04-26T19:30:40.042Z,16.20
2019-04-26T19:33:22.205Z,16.20
2019-04-26T19:35:55.741Z,16.20
2019-04-26T19:38:26.394Z,16.00
2019-04-26T19:40:57.028Z,16.00
2019-04-26T19:43:31.149Z,16.00
2019-04-26T19:46:10.386Z,15.90
2019-04-26T19:49:05.455Z,15.80
2019-04-26T19:51:56.659Z,15.80
2019-04-26T19:54:35.634Z,15.70
2019-04-26T19:57:24.008Z,15.60
2019-04-26T19:59:54.426Z,15.60
2019-04-26T20:02:26.296Z,15.60
2019-04-26T20:04:56.909Z,15.60
2019-04-26T20:07:41.646Z,15.60
2019-04-26T20:10:12.928Z,15.60
2019-04-26T20:12:43.504Z,15.60
2019-04-26T20:15:25.343Z,15.60
2019-04-26T20:17:52.492Z,15.50
2019-04-26T20:20:21.582Z,15.60
2019-04-26T20:22:51.458Z,15.60
2019-04-26T20:25:22.383Z,15.60
2019-04-26T20:27:53.762Z,15.60
2019-04-26T20:30:43.389Z,15.50
2019-04-26T20:33:13.789Z,15.50
2019-04-26T20:35:44.247Z,15.60
2019-04-26T20:38:14.980Z,15.50
2019-04-26T20:40:47.559Z,15.50
2019-04-26T20:43:24.413Z,15.50
2019-04-26T20:46:08.750Z,15.40
2019-04-26T20:48:25.609Z,15.30
2019-04-26T20:50:55.528Z,15.20
2019-04-26T20:53:25.982Z,15.20
2019-04-26T20:55:56.398Z,15.10
2019-04-26T20:58:26.826Z,15.10
2019-04-26T21:00:57.220Z,15.10
2019-04-26T21:03:28.026Z,15.00
2019-04-26T21:06:00.580Z,15.00
2019-04-26T21:08:31.680Z,15.00
2019-04-26T21:11:03.310Z,14.90
2019-04-26T21:13:41.522Z,14.90
2019-04-26T21:16:15.202Z,14.90
2019-04-26T21:18:45.818Z,14.90
2019-04-26T21:21:16.537Z,14.90
2019-04-26T21:23:48.696Z,15.00
2019-04-26T21:26:27.294Z,14.90
2019-04-26T21:29:20.460Z,14.90
2019-04-26T21:32:16.352Z,15.00
2019-04-26T21:34:50.610Z,15.00
2019-04-26T21:37:27.535Z,15.00
2019-04-26T21:40:22.762Z,14.90
2019-04-26T21:42:49.177Z,14.90
2019-04-26T21:45:21.751Z,14.80
2019-04-26T21:47:54.299Z,14.80
2019-04-26T21:50:25.061Z,14.80
2019-04-26T21:52:58.587Z,14.70
2019-04-26T21:55:35.286Z,14.60
2019-04-26T21:58:00.396Z,14.60
2019-04-26T22:00:48.664Z,14.60
2019-04-26T22:03:19.154Z,14.60
2019-04-26T22:05:50.700Z,14.40
2019-04-26T22:08:24.851Z,14.40
2019-04-26T22:10:56.257Z,14.30
2019-04-26T22:13:37.303Z,14.30
2019-04-26T22:16:35.554Z,14.30
2019-04-26T22:19:27.867Z,14.30
2019-04-26T22:22:19.468Z,14.30
2019-04-26T22:24:50.441Z,14.30
2019-04-26T22:27:24.851Z,14.30
2019-04-26T22:29:55.026Z,14.10
2019-04-26T22:32:26.020Z,14.10
2019-04-26T22:34:56.653Z,14.10
2019-04-26T22:37:29.969Z,14.00
2019-04-26T22:40:01.218Z,14.10
2019-04-26T22:42:40.331Z,14.00
2019-04-26T22:45:21.343Z,14.00
2019-04-26T22:47:56.832Z,14.00
2019-04-26T22:50:27.580Z,14.00
2019-04-26T22:52:58.249Z,14.10
2019-04-26T22:55:28.667Z,14.10
2019-04-26T22:57:59.071Z,14.10
2019-04-26T23:00:33.105Z,14.10
2019-04-26T23:03:07.208Z,14.10
2019-04-26T23:05:39.118Z,14.10
2019-04-26T23:08:09.610Z,14.10
2019-04-26T23:10:45.920Z,14.10
2019-04-26T23:13:37.757Z,14.10
2019-04-26T23:16:34.924Z,14.00
2019-04-26T23:19:19.124Z,14.00
2019-04-26T23:21:52.817Z,14.00
2019-04-26T23:24:20.924Z,13.90
2019-04-26T23:26:51.529Z,13.90
2019-04-26T23:29:22.804Z,13.80
2019-04-26T23:31:55.374Z,13.60
2019-04-26T23:34:25.568Z,13.50
2019-04-26T23:36:56.205Z,13.40
2019-04-26T23:39:26.610Z,13.40
2019-04-26T23:41:57.697Z,13.40
2019-04-26T23:44:28.063Z,13.40
2019-04-26T23:47:01.314Z,13.30
2019-04-26T23:49:30.945Z,13.20
2019-04-26T23:52:01.298Z,13.20
2019-04-26T23:54:35.885Z,13.10
2019-04-26T23:57:04.707Z,13.20
2019-04-26T23:59:35.044Z,13.10
